Time,TemperatureF,DewpointF,PressureIn,WindDirection,WindDirectionDegrees,WindSpeedMPH,WindSpeedGustMPH,Humidity,HourlyPrecipIn,Conditions,Clouds,dailyrainin,SoftwareType,DateUTC
2013-03-13 00:00:00,30.3,25.5,29.46,West,276,5.0,9.0,82,0.00,,,0.00,WeatherCatV1.02B3,2013-03-13 04:00:00,
2013-03-13 00:01:00,30.3,25.2,29.46,WNW,293,4.0,11.0,81,0.00,,,0.00,WeatherCatV1.02B3,2013-03-13 04:01:00,
2013-03-13 00:06:00,30.3,24.9,29.47,West,266,11.0,11.0,80,0.00,,,0.00,WeatherCatV1.02B3,2013-03-13 04:06:00,
2013-03-13 00:11:00,30.3,25.2,29.47,WSW,250,5.0,9.0,81,0.00,,,0.00,WeatherCatV1.02B3,2013-03-13 04:11:00,
2013-03-13 00:16:00,30.4,25.6,29.47,West,276,6.0,12.0,82,0.00,,,0.00,WeatherCatV1.02B3,2013-03-13 04:16:00,
2013-03-13 00:21:00,30.2,25.4,29.47,West,260,5.0,12.0,82,0.00,,,0.00,WeatherCatV1.02B3,2013-03-13 04:21:00,
2013-03-13 00:26:00,30.2,25.7,29.47,West,276,6.0,11.0,83,0.00,,,0.00,WeatherCatV1.02B3,2013-03-13 04:26:00,
2013-03-13 00:31:00,30.1,25.6,29.47,WSW,257,9.0,14.0,83,0.00,,,0.00,WeatherCatV1.02B3,2013-03-13 04:31:00,
2013-03-13 00:36:00,30.0,25.2,29.47,WSW,243,6.0,11.0,82,0.00,,,0.00,WeatherCatV1.02B3,2013-03-13 04:36:00,
2013-03-13 00:41:00,30.0,25.5,29.47,WSW,242,6.0,6.0,83,0.00,,,0.00,WeatherCatV1.02B3,2013-03-13 04:41:00,
2013-03-13 00:46:00,29.9,25.1,29.47,West,269,5.0,12.0,82,0.00,,,0.00,WeatherCatV1.02B3,2013-03-13 04:46:00,
2013-03-13 00:51:00,29.9,25.4,29.47,WSW,256,9.0,14.0,83,0.00,,,0.00,WeatherCatV1.02B3,2013-03-13 04:51:00,
2013-03-13 00:56:00,29.8,25.9,29.47,West,271,5.0,14.0,85,0.00,,,0.00,WeatherCatV1.02B3,2013-03-13 04:56:00,
2013-03-13 01:01:00,29.5,26.1,29.47,WSW,238,5.0,13.0,87,0.00,,,0.00,WeatherCatV1.02B3,2013-03-13 05:01:00,
2013-03-13 01:06:00,29.2,26.4,29.47,West,260,10.0,12.0,89,0.00,,,0.00,WeatherCatV1.02B3,2013-03-13 05:06:00,
2013-03-13 01:11:00,28.8,26.2,29.48,WSW,256,8.0,12.0,90,0.00,,,0.00,WeatherCatV1.02B3,2013-03-13 05:11:00,
2013-03-13 01:16:00,28.5,26.5,29.48,WNW,290,7.0,14.0,92,0.00,,,0.00,WeatherCatV1.02B3,2013-03-13 05:16:00,
2013-03-13 01:21:00,28.1,25.8,29.48,NW,314,2.0,12.0,91,0.00,,,0.00,WeatherCatV1.02B3,2013-03-13 05:21:00,
2013-03-13 01:26:00,27.9,25.6,29.48,West,281,4.0,4.0,91,0.00,,,0.00,WeatherCatV1.02B3,2013-03-13 05:26:00,
2013-03-13 01:31:00,28.1,25.8,29.48,West,269,2.0,11.0,91,0.00,,,0.00,WeatherCatV1.02B3,2013-03-13 05:31:00,
2013-03-13 01:36:00,28.3,25.8,29.47,WSW,248,5.0,7.0,90,0.00,,,0.00,WeatherCatV1.02B3,2013-03-13 05:36:00,
2013-03-13 01:41:00,28.4,26.1,29.47,WSW,246,10.0,10.0,91,0.00,,,0.00,WeatherCatV1.02B3,2013-03-13 05:41:00,
2013-03-13 01:46:00,28.5,26.2,29.47,West,266,6.0,9.0,91,0.00,,,0.00,WeatherCatV1.02B3,2013-03-13 05:46:00,
2013-03-13 01:51:00,28.8,25.7,29.47,West,273,4.0,13.0,88,0.00,,,0.00,WeatherCatV1.02B3,2013-03-13 05:51:00,
2013-03-13 01:56:00,28.9,25.5,29.48,WSW,255,5.0,7.0,87,0.00,,,0.00,WeatherCatV1.02B3,2013-03-13 05:56:00,
2013-03-13 02:01:00,28.5,25.9,29.47,West,278,4.0,9.0,90,0.00,,,0.00,WeatherCatV1.02B3,2013-03-13 06:01:00,
2013-03-13 02:06:00,28.2,25.9,29.48,SW,233,4.0,9.0,91,0.00,,,0.00,WeatherCatV1.02B3,2013-03-13 06:06:00,
2013-03-13 02:11:00,28.1,25.3,29.48,West,262,4.0,13.0,89,0.00,,,0.00,WeatherCatV1.02B3,2013-03-13 06:11:00,
2013-03-13 02:16:00,28.3,25.2,29.47,West,277,5.0,10.0,88,0.00,,,0.00,WeatherCatV1.02B3,2013-03-13 06:16:00,
2013-03-13 02:21:00,28.6,25.2,29.48,WNW,287,5.0,8.0,87,0.00,,,0.00,WeatherCatV1.02B3,2013-03-13 06:21:00,
2013-03-13 02:26:00,28.6,25.2,29.48,West,260,5.0,11.0,87,0.00,,,0.00,WeatherCatV1.02B3,2013-03-13 06:26:00,
2013-03-13 02:31:00,28.6,25.2,29.48,West,276,4.0,11.0,87,0.00,,,0.00,WeatherCatV1.02B3,2013-03-13 06:31:00,
2013-03-13 02:36:00,28.5,25.1,29.48,West,270,6.0,8.0,87,0.00,,,0.00,WeatherCatV1.02B3,2013-03-13 06:36:00,
2013-03-13 02:41:00,28.5,25.1,29.48,West,269,4.0,7.0,87,0.00,,,0.00,WeatherCatV1.02B3,2013-03-13 06:41:00,
2013-03-13 02:46:00,28.5,24.9,29.48,West,271,5.0,14.0,86,0.00,,,0.00,WeatherCatV1.02B3,2013-03-13 06:46:00,
2013-03-13 02:51:00,28.5,24.9,29.48,WNW,284,2.0,11.0,86,0.00,,,0.00,WeatherCatV1.02B3,2013-03-13 06:51:00,
2013-03-13 02:56:00,28.5,24.6,29.48,West,265,5.0,9.0,85,0.00,,,0.00,WeatherCatV1.02B3,2013-03-13 06:56:00,
2013-03-13 03:01:00,28.5,24.6,29.48,West,277,8.0,15.0,85,0.00,,,0.00,WeatherCatV1.02B3,2013-03-13 07:01:00,
2013-03-13 03:06:00,28.5,24.6,29.48,WNW,291,4.0,10.0,85,0.00,,,0.00,WeatherCatV1.02B3,2013-03-13 07:06:00,
2013-03-13 03:11:00,28.4,24.5,29.48,WSW,256,3.0,9.0,85,0.00,,,0.00,WeatherCatV1.02B3,2013-03-13 07:11:00,
2013-03-13 03:16:00,28.4,24.5,29.48,West,281,11.0,11.0,85,0.00,,,0.00,WeatherCatV1.02B3,2013-03-13 07:16:00,
2013-03-13 03:21:00,28.4,24.8,29.48,West,273,6.0,6.0,86,0.00,,,0.00,WeatherCatV1.02B3,2013-03-13 07:21:00,
2013-03-13 03:26:00,28.5,24.9,29.48,West,277,1.0,12.0,86,0.00,,,0.00,WeatherCatV1.02B3,2013-03-13 07:26:00,
2013-03-13 03:31:00,28.4,25.3,29.48,WSW,250,5.0,7.0,88,0.00,,,0.00,WeatherCatV1.02B3,2013-03-13 07:31:00,
2013-03-13 03:36:00,28.4,25.0,29.49,West,273,7.0,12.0,87,0.00,,,0.00,WeatherCatV1.02B3,2013-03-13 07:36:00,
2013-03-13 03:41:00,28.4,25.0,29.49,West,274,6.0,8.0,87,0.00,,,0.00,WeatherCatV1.02B3,2013-03-13 07:41:00,
2013-03-13 03:46:00,28.1,25.0,29.48,West,264,4.0,9.0,88,0.00,,,0.00,WeatherCatV1.02B3,2013-03-13 07:46:00,
2013-03-13 03:51:00,28.1,24.5,29.48,West,280,3.0,6.0,86,0.00,,,0.00,WeatherCatV1.02B3,2013-03-13 07:51:00,
2013-03-13 03:56:00,28.3,24.1,29.49,West,278,4.0,13.0,84,0.00,,,0.00,WeatherCatV1.02B3,2013-03-13 07:56:00,
2013-03-13 04:01:00,28.4,23.9,29.49,NW,326,5.0,11.0,83,0.00,,,0.00,WeatherCatV1.02B3,2013-03-13 08:01:00,
2013-03-13 04:06:00,28.3,23.8,29.48,SW,236,7.0,7.0,83,0.00,,,0.00,WeatherCatV1.02B3,2013-03-13 08:06:00,
2013-03-13 04:11:00,28.3,23.5,29.49,WNW,287,2.0,14.0,82,0.00,,,0.00,WeatherCatV1.02B3,2013-03-13 08:11:00,
2013-03-13 04:16:00,28.2,23.4,29.49,NW,315,6.0,12.0,82,0.00,,,0.00,WeatherCatV1.02B3,2013-03-13 08:16:00,
2013-03-13 04:21:00,28.2,23.1,29.49,West,276,4.0,11.0,81,0.00,,,0.00,WeatherCatV1.02B3,2013-03-13 08:21:00,
2013-03-13 04:26:00,28.2,23.4,29.49,WNW,293,7.0,13.0,82,0.00,,,0.00,WeatherCatV1.02B3,2013-03-13 08:26:00,
2013-03-13 04:31:00,28.2,23.7,29.49,West,263,4.0,10.0,83,0.00,,,0.00,WeatherCatV1.02B3,2013-03-13 08:31:00,
2013-03-13 04:36:00,28.1,23.9,29.49,West,267,4.0,11.0,84,0.00,,,0.00,WeatherCatV1.02B3,2013-03-13 08:36:00,
2013-03-13 04:41:00,28.0,24.1,29.49,West,276,6.0,11.0,85,0.00,,,0.00,WeatherCatV1.02B3,2013-03-13 08:41:00,
2013-03-13 04:46:00,27.9,24.0,29.49,WSW,239,7.0,9.0,85,0.00,,,0.00,WeatherCatV1.02B3,2013-03-13 08:46:00,
2013-03-13 04:51:00,27.9,24.3,29.49,West,269,8.0,13.0,86,0.00,,,0.00,WeatherCatV1.02B3,2013-03-13 08:51:00,
2013-03-13 04:56:00,27.8,23.9,29.50,West,262,5.0,13.0,85,0.00,,,0.00,WeatherCatV1.02B3,2013-03-13 08:56:00,
2013-03-13 05:01:00,27.8,23.9,29.50,West,273,5.0,12.0,85,0.00,,,0.00,WeatherCatV1.02B3,2013-03-13 09:01:00,
2013-03-13 05:06:00,27.9,23.7,29.50,West,274,3.0,8.0,84,0.00,,,0.00,WeatherCatV1.02B3,2013-03-13 09:06:00,
2013-03-13 05:11:00,28.0,23.2,29.50,WNW,292,11.0,11.0,82,0.00,,,0.00,WeatherCatV1.02B3,2013-03-13 09:11:00,
2013-03-13 05:16:00,28.1,23.3,29.50,NW,309,4.0,15.0,82,0.00,,,0.00,WeatherCatV1.02B3,2013-03-13 09:16:00,
2013-03-13 05:21:00,28.1,23.3,29.50,West,277,7.0,7.0,82,0.00,,,0.00,WeatherCatV1.02B3,2013-03-13 09:21:00,
2013-03-13 05:26:00,28.1,23.0,29.50,West,267,3.0,7.0,81,0.00,,,0.00,WeatherCatV1.02B3,2013-03-13 09:26:00,
2013-03-13 05:31:00,28.1,23.0,29.50,WNW,285,2.0,12.0,81,0.00,,,0.00,WeatherCatV1.02B3,2013-03-13 09:31:00,
2013-03-13 05:36:00,28.0,23.2,29.50,WNW,291,6.0,10.0,82,0.00,,,0.00,WeatherCatV1.02B3,2013-03-13 09:36:00,
2013-03-13 05:41:00,27.8,23.9,29.51,West,278,4.0,9.0,85,0.00,,,0.00,WeatherCatV1.02B3,2013-03-13 09:41:00,
2013-03-13 05:46:00,27.6,24.0,29.51,WNW,288,1.0,13.0,86,0.00,,,0.00,WeatherCatV1.02B3,2013-03-13 09:46:00,
2013-03-13 05:51:00,27.5,24.1,29.51,NW,315,3.0,11.0,87,0.00,,,0.00,WeatherCatV1.02B3,2013-03-13 09:51:00,
2013-03-13 05:56:00,27.3,24.8,29.52,WSW,255,3.0,6.0,90,0.00,,,0.00,WeatherCatV1.02B3,2013-03-13 09:56:00,
2013-03-13 06:01:00,26.9,24.1,29.52,NE,50,4.0,4.0,89,0.00,,,0.00,WeatherCatV1.02B3,2013-03-13 10:01:00,
2013-03-13 06:06:00,26.9,22.4,29.52,WSW,242,0.0,6.0,83,0.00,,,0.00,WeatherCatV1.02B3,2013-03-13 10:06:00,
2013-03-13 06:11:00,27.2,21.0,29.52,WNW,283,2.0,12.0,77,0.00,,,0.00,WeatherCatV1.02B3,2013-03-13 10:11:00,
2013-03-13 06:16:00,27.4,20.5,29.52,NNW,337,4.0,14.0,75,0.00,,,0.00,WeatherCatV1.02B3,2013-03-13 10:16:00,
2013-03-13 06:21:00,27.5,20.6,29.53,West,264,7.0,9.0,75,0.00,,,0.00,WeatherCatV1.02B3,2013-03-13 10:21:00,
2013-03-13 06:26:00,27.5,20.9,29.53,NW,325,2.0,4.0,76,0.00,,,0.00,WeatherCatV1.02B3,2013-03-13 10:26:00,
2013-03-13 06:31:00,27.5,20.3,29.53,NW,307,7.0,11.0,74,0.00,,,0.00,WeatherCatV1.02B3,2013-03-13 10:31:00,
2013-03-13 06:36:00,27.5,20.6,29.54,WNW,289,2.0,8.0,75,0.00,,,0.00,WeatherCatV1.02B3,2013-03-13 10:36:00,
2013-03-13 06:41:00,27.4,21.5,29.54,West,259,4.0,14.0,78,0.00,,,0.00,WeatherCatV1.02B3,2013-03-13 10:41:00,
2013-03-13 06:46:00,27.0,22.0,29.54,NW,309,4.0,8.0,81,0.00,,,0.00,WeatherCatV1.02B3,2013-03-13 10:46:00,
2013-03-13 06:51:00,26.8,20.9,29.54,WNW,287,3.0,6.0,78,0.00,,,0.00,WeatherCatV1.02B3,2013-03-13 10:51:00,
2013-03-13 06:56:00,26.8,20.3,29.55,WNW,297,3.0,6.0,76,0.00,,,0.00,WeatherCatV1.02B3,2013-03-13 10:56:00,
2013-03-13 07:01:00,26.8,20.0,29.55,WNW,298,4.0,9.0,75,0.00,,,0.00,WeatherCatV1.02B3,2013-03-13 11:01:00,
2013-03-13 07:06:00,26.8,19.0,29.55,West,278,4.0,9.0,72,0.00,,,0.00,WeatherCatV1.02B3,2013-03-13 11:06:00,
2013-03-13 07:11:00,26.8,19.6,29.55,NW,321,0.0,5.0,74,0.00,,,0.00,WeatherCatV1.02B3,2013-03-13 11:11:00,
2013-03-13 07:16:00,26.8,19.6,29.56,WSW,249,1.0,3.0,74,0.00,,,0.00,WeatherCatV1.02B3,2013-03-13 11:16:00,
2013-03-13 07:21:00,26.7,19.9,29.56,NW,308,3.0,3.0,75,0.00,,,0.00,WeatherCatV1.02B3,2013-03-13 11:21:00,
2013-03-13 07:26:00,26.6,19.8,29.56,WSW,255,5.0,11.0,75,0.00,,,0.00,WeatherCatV1.02B3,2013-03-13 11:26:00,
2013-03-13 07:31:00,26.5,19.4,29.56,WNW,284,4.0,11.0,74,0.00,,,0.00,WeatherCatV1.02B3,2013-03-13 11:31:00,
2013-03-13 07:36:00,26.4,18.3,29.57,WSW,256,7.0,9.0,71,0.00,,,0.00,WeatherCatV1.02B3,2013-03-13 11:36:00,
2013-03-13 07:41:00,26.3,18.2,29.57,West,270,10.0,11.0,71,0.00,,,0.00,WeatherCatV1.02B3,2013-03-13 11:41:00,
2013-03-13 07:46:00,26.2,18.4,29.57,WNW,294,5.0,7.0,72,0.00,,,0.00,WeatherCatV1.02B3,2013-03-13 11:46:00,
2013-03-13 07:51:00,26.2,18.7,29.57,West,260,2.0,8.0,73,0.00,,,0.00,WeatherCatV1.02B3,2013-03-13 11:51:00,
2013-03-13 07:56:00,26.1,19.0,29.57,West,276,6.0,11.0,74,0.00,,,0.00,WeatherCatV1.02B3,2013-03-13 11:56:00,
2013-03-13 08:01:00,26.0,18.9,29.57,West,276,3.0,6.0,74,0.00,,,0.00,WeatherCatV1.02B3,2013-03-13 12:01:00,
2013-03-13 08:06:00,26.0,18.9,29.58,WNW,291,7.0,13.0,74,0.00,,,0.00,WeatherCatV1.02B3,2013-03-13 12:06:00,
2013-03-13 08:11:00,25.9,18.8,29.58,WNW,300,3.0,8.0,74,0.00,,,0.00,WeatherCatV1.02B3,2013-03-13 12:11:00,
2013-03-13 08:16:00,25.8,19.0,29.58,WNW,295,8.0,9.0,75,0.00,,,0.00,WeatherCatV1.02B3,2013-03-13 12:16:00,
2013-03-13 08:21:00,25.8,19.0,29.58,West,274,3.0,10.0,75,0.00,,,0.00,WeatherCatV1.02B3,2013-03-13 12:21:00,
2013-03-13 08:26:00,25.7,18.6,29.59,NW,325,0.0,5.0,74,0.00,,,0.00,WeatherCatV1.02B3,2013-03-13 12:26:00,
2013-03-13 08:31:00,25.8,18.7,29.59,NW,322,3.0,6.0,74,0.00,,,0.00,WeatherCatV1.02B3,2013-03-13 12:31:00,
2013-03-13 08:36:00,25.8,19.0,29.59,WNW,290,3.0,8.0,75,0.00,,,0.00,WeatherCatV1.02B3,2013-03-13 12:36:00,
2013-03-13 08:41:00,25.7,18.9,29.59,NW,314,4.0,12.0,75,0.00,,,0.00,WeatherCatV1.02B3,2013-03-13 12:41:00,
2013-03-13 08:46:00,25.7,18.6,29.59,WNW,288,2.0,7.0,74,0.00,,,0.00,WeatherCatV1.02B3,2013-03-13 12:46:00,
2013-03-13 08:51:00,25.7,18.3,29.60,NW,325,2.0,9.0,73,0.00,,,0.00,WeatherCatV1.02B3,2013-03-13 12:51:00,
2013-03-13 08:56:00,25.8,18.7,29.60,NW,319,2.0,9.0,74,0.00,,,0.00,WeatherCatV1.02B3,2013-03-13 12:56:00,
2013-03-13 09:01:00,25.7,18.6,29.60,West,264,7.0,11.0,74,0.00,,,0.00,WeatherCatV1.02B3,2013-03-13 13:01:00,
2013-03-13 09:06:00,25.7,18.9,29.60,WNW,295,1.0,10.0,75,0.00,,,0.00,WeatherCatV1.02B3,2013-03-13 13:06:00,
2013-03-13 09:11:00,25.7,19.2,29.61,West,278,3.0,4.0,76,0.00,,,0.00,WeatherCatV1.02B3,2013-03-13 13:11:00,
2013-03-13 09:16:00,25.6,19.4,29.61,WNW,284,5.0,9.0,77,0.00,,,0.00,WeatherCatV1.02B3,2013-03-13 13:16:00,
2013-03-13 09:21:00,25.6,19.7,29.61,West,271,6.0,10.0,78,0.00,,,0.00,WeatherCatV1.02B3,2013-03-13 13:21:00,
2013-03-13 09:26:00,25.5,19.6,29.61,West,267,4.0,6.0,78,0.00,,,0.00,WeatherCatV1.02B3,2013-03-13 13:26:00,
2013-03-13 09:31:00,25.5,19.3,29.61,West,276,4.0,8.0,77,0.00,,,0.00,WeatherCatV1.02B3,2013-03-13 13:31:00,
2013-03-13 09:36:00,25.7,19.8,29.61,WNW,291,3.0,15.0,78,0.00,,,0.00,WeatherCatV1.02B3,2013-03-13 13:36:00,
2013-03-13 09:41:00,25.8,20.2,29.62,WNW,291,8.0,9.0,79,0.00,,,0.00,WeatherCatV1.02B3,2013-03-13 13:41:00,
2013-03-13 09:46:00,25.7,20.1,29.62,WSW,255,7.0,8.0,79,0.00,,,0.00,WeatherCatV1.02B3,2013-03-13 13:46:00,
2013-03-13 09:51:00,25.7,20.1,29.62,West,264,6.0,7.0,79,0.00,,,0.00,WeatherCatV1.02B3,2013-03-13 13:51:00,
2013-03-13 09:56:00,25.7,20.1,29.62,West,273,2.0,11.0,79,0.00,,,0.00,WeatherCatV1.02B3,2013-03-13 13:56:00,
2013-03-13 10:01:00,25.6,20.6,29.63,NW,323,1.0,5.0,81,0.00,,,0.00,WeatherCatV1.02B3,2013-03-13 14:01:00,
2013-03-13 10:06:00,25.5,21.1,29.63,WNW,293,2.0,6.0,83,0.00,,,0.00,WeatherCatV1.02B3,2013-03-13 14:06:00,
2013-03-13 10:11:00,25.4,21.3,29.63,West,276,5.0,9.0,84,0.00,,,0.00,WeatherCatV1.02B3,2013-03-13 14:11:00,
2013-03-13 10:16:00,25.3,21.2,29.63,North,10,3.0,10.0,84,0.00,,,0.00,WeatherCatV1.02B3,2013-03-13 14:16:00,
2013-03-13 10:21:00,25.3,21.2,29.63,West,266,5.0,10.0,84,0.00,,,0.00,WeatherCatV1.02B3,2013-03-13 14:21:00,
2013-03-13 10:26:00,25.3,21.2,29.63,West,269,7.0,10.0,84,0.00,,,0.00,WeatherCatV1.02B3,2013-03-13 14:26:00,
2013-03-13 10:31:00,25.2,20.8,29.64,West,272,5.0,11.0,83,0.00,,,0.00,WeatherCatV1.02B3,2013-03-13 14:31:00,
2013-03-13 10:36:00,25.4,21.0,29.64,West,266,9.0,10.0,83,0.00,,,0.00,WeatherCatV1.02B3,2013-03-13 14:36:00,
2013-03-13 10:41:00,25.4,20.7,29.64,WNW,290,5.0,8.0,82,0.00,,,0.00,WeatherCatV1.02B3,2013-03-13 14:41:00,
2013-03-13 10:46:00,25.6,20.6,29.64,NE,56,2.0,9.0,81,0.00,,,0.00,WeatherCatV1.02B3,2013-03-13 14:46:00,
2013-03-13 10:51:00,25.9,20.3,29.65,SW,226,1.0,9.0,79,0.00,,,0.00,WeatherCatV1.02B3,2013-03-13 14:51:00,
2013-03-13 10:56:00,26.2,20.0,29.64,West,269,6.0,8.0,77,0.00,,,0.00,WeatherCatV1.02B3,2013-03-13 14:56:00,
2013-03-13 11:01:00,26.5,20.0,29.65,West,281,2.0,7.0,76,0.00,,,0.00,WeatherCatV1.02B3,2013-03-13 15:01:00,
2013-03-13 11:06:00,26.6,19.1,29.65,WNW,293,6.0,9.0,73,0.00,,,0.00,WeatherCatV1.02B3,2013-03-13 15:06:00,
2013-03-13 11:11:00,26.9,19.7,29.65,WNW,298,2.0,10.0,74,0.00,,,0.00,WeatherCatV1.02B3,2013-03-13 15:11:00,
2013-03-13 11:16:00,27.0,19.5,29.65,NW,307,9.0,13.0,73,0.00,,,0.00,WeatherCatV1.02B3,2013-03-13 15:16:00,
2013-03-13 11:21:00,27.1,19.9,29.66,WNW,293,5.0,7.0,74,0.00,,,0.00,WeatherCatV1.02B3,2013-03-13 15:21:00,
2013-03-13 11:26:00,26.9,20.4,29.66,WNW,287,3.0,6.0,76,0.00,,,0.00,WeatherCatV1.02B3,2013-03-13 15:26:00,
2013-03-13 11:31:00,26.9,20.4,29.66,NW,321,4.0,12.0,76,0.00,,,0.00,WeatherCatV1.02B3,2013-03-13 15:31:00,
2013-03-13 11:36:00,26.9,20.1,29.66,West,270,2.0,7.0,75,0.00,,,0.00,WeatherCatV1.02B3,2013-03-13 15:36:00,
2013-03-13 11:41:00,26.7,19.5,29.66,WNW,287,8.0,9.0,74,0.00,,,0.00,WeatherCatV1.02B3,2013-03-13 15:41:00,
2013-03-13 11:46:00,26.8,20.3,29.66,West,260,9.0,9.0,76,0.00,,,0.00,WeatherCatV1.02B3,2013-03-13 15:46:00,
2013-03-13 11:51:00,26.9,20.4,29.67,West,273,3.0,10.0,76,0.00,,,0.00,WeatherCatV1.02B3,2013-03-13 15:51:00,
2013-03-13 11:56:00,27.1,20.6,29.67,WNW,296,5.0,8.0,76,0.00,,,0.00,WeatherCatV1.02B3,2013-03-13 15:56:00,
2013-03-13 12:01:00,27.5,20.0,29.67,NNW,338,5.0,9.0,73,0.00,,,0.00,WeatherCatV1.02B3,2013-03-13 16:01:00,
2013-03-13 12:06:00,28.0,20.5,29.68,WSW,257,2.0,8.0,73,0.00,,,0.00,WeatherCatV1.02B3,2013-03-13 16:06:00,
2013-03-13 12:11:00,27.9,19.4,29.68,West,262,11.0,12.0,70,0.00,,,0.00,WeatherCatV1.02B3,2013-03-13 16:11:00,
2013-03-13 12:16:00,27.4,19.3,29.69,WSW,240,9.0,10.0,71,0.00,,,0.00,WeatherCatV1.02B3,2013-03-13 16:16:00,
2013-03-13 12:21:00,27.2,19.4,29.68,WSW,242,2.0,6.0,72,0.00,,,0.00,WeatherCatV1.02B3,2013-03-13 16:21:00,
2013-03-13 12:26:00,27.1,19.6,29.69,WNW,302,9.0,11.0,73,0.00,,,0.00,WeatherCatV1.02B3,2013-03-13 16:26:00,
2013-03-13 12:31:00,26.5,19.4,29.69,WNW,285,2.0,14.0,74,0.00,,,0.00,WeatherCatV1.02B3,2013-03-13 16:31:00,
2013-03-13 12:36:00,26.5,20.0,29.69,West,277,7.0,10.0,76,0.00,,,0.00,WeatherCatV1.02B3,2013-03-13 16:36:00,
2013-03-13 12:41:00,26.3,20.1,29.69,NW,308,6.0,10.0,77,0.00,,,0.00,WeatherCatV1.02B3,2013-03-13 16:41:00,
2013-03-13 12:46:00,26.2,20.0,29.69,WNW,298,3.0,8.0,77,0.00,,,0.00,WeatherCatV1.02B3,2013-03-13 16:46:00,
2013-03-13 12:51:00,26.3,20.4,29.69,West,280,3.0,4.0,78,0.00,,,0.00,WeatherCatV1.02B3,2013-03-13 16:51:00,
2013-03-13 12:56:00,26.2,20.0,29.69,West,280,4.0,10.0,77,0.00,,,0.00,WeatherCatV1.02B3,2013-03-13 16:56:00,
2013-03-13 13:01:00,26.3,20.7,29.70,NNE,25,1.0,7.0,79,0.00,,,0.00,WeatherCatV1.02B3,2013-03-13 17:01:00,
2013-03-13 13:06:00,26.4,20.5,29.70,NW,319,5.0,7.0,78,0.00,,,0.00,WeatherCatV1.02B3,2013-03-13 17:06:00,
2013-03-13 13:11:00,26.3,20.1,29.70,WNW,288,3.0,9.0,77,0.00,,,0.00,WeatherCatV1.02B3,2013-03-13 17:11:00,
2013-03-13 13:16:00,26.6,20.4,29.70,NNW,338,2.0,5.0,77,0.00,,,0.00,WeatherCatV1.02B3,2013-03-13 17:16:00,
2013-03-13 13:21:00,26.8,20.6,29.70,NW,321,4.0,16.0,77,0.00,,,0.00,WeatherCatV1.02B3,2013-03-13 17:21:00,
2013-03-13 13:26:00,26.8,20.3,29.70,West,273,4.0,5.0,76,0.00,,,0.00,WeatherCatV1.02B3,2013-03-13 17:26:00,
2013-03-13 13:31:00,26.9,20.1,29.70,WNW,296,4.0,13.0,75,0.00,,,0.00,WeatherCatV1.02B3,2013-03-13 17:31:00,
2013-03-13 13:36:00,27.3,20.8,29.71,West,278,3.0,5.0,76,0.00,,,0.00,WeatherCatV1.02B3,2013-03-13 17:36:00,
2013-03-13 13:41:00,27.4,20.5,29.71,WNW,287,1.0,10.0,75,0.00,,,0.00,WeatherCatV1.02B3,2013-03-13 17:41:00,
2013-03-13 13:46:00,27.4,20.5,29.71,West,264,6.0,9.0,75,0.00,,,0.00,WeatherCatV1.02B3,2013-03-13 17:46:00,
2013-03-13 13:51:00,27.5,20.3,29.71,West,262,5.0,7.0,74,0.00,,,0.00,WeatherCatV1.02B3,2013-03-13 17:51:00,
2013-03-13 13:56:00,27.9,20.1,29.71,WNW,294,6.0,8.0,72,0.00,,,0.00,WeatherCatV1.02B3,2013-03-13 17:56:00,
2013-03-13 14:01:00,27.9,19.7,29.72,WNW,298,6.0,10.0,71,0.00,,,0.00,WeatherCatV1.02B3,2013-03-13 18:01:00,
2013-03-13 14:06:00,28.2,20.0,29.71,NNW,327,3.0,5.0,71,0.00,,,0.00,WeatherCatV1.02B3,2013-03-13 18:06:00,
2013-03-13 14:11:00,28.6,20.1,29.71,NNW,332,4.0,8.0,70,0.00,,,0.00,WeatherCatV1.02B3,2013-03-13 18:11:00,
2013-03-13 14:16:00,28.6,19.4,29.72,WNW,288,3.0,8.0,68,0.00,,,0.00,WeatherCatV1.02B3,2013-03-13 18:16:00,
2013-03-13 14:21:00,28.4,20.2,29.72,WNW,290,4.0,7.0,71,0.00,,,0.00,WeatherCatV1.02B3,2013-03-13 18:21:00,
2013-03-13 14:26:00,28.9,20.4,29.72,WNW,288,5.0,6.0,70,0.00,,,0.00,WeatherCatV1.02B3,2013-03-13 18:26:00,
2013-03-13 14:31:00,29.1,20.2,29.72,West,281,6.0,10.0,69,0.00,,,0.00,WeatherCatV1.02B3,2013-03-13 18:31:00,
2013-03-13 14:36:00,29.5,21.6,29.72,SW,233,13.0,13.0,72,0.00,,,0.00,WeatherCatV1.02B3,2013-03-13 18:36:00,
2013-03-13 14:41:00,29.4,20.8,29.72,West,262,10.0,11.0,70,0.00,,,0.00,WeatherCatV1.02B3,2013-03-13 18:41:00,
2013-03-13 14:46:00,29.3,21.1,29.72,WNW,282,3.0,10.0,71,0.00,,,0.00,WeatherCatV1.02B3,2013-03-13 18:46:00,
2013-03-13 14:51:00,29.2,20.0,29.72,West,273,3.0,12.0,68,0.00,,,0.00,WeatherCatV1.02B3,2013-03-13 18:51:00,
2013-03-13 14:56:00,29.7,20.8,29.72,West,265,10.0,13.0,69,0.00,,,0.00,WeatherCatV1.02B3,2013-03-13 18:56:00,
2013-03-13 15:01:00,30.0,20.7,29.72,NW,304,4.0,8.0,68,0.00,,,0.00,WeatherCatV1.02B3,2013-03-13 19:01:00,
2013-03-13 15:06:00,30.0,21.1,29.72,WNW,287,6.0,9.0,69,0.00,,,0.00,WeatherCatV1.02B3,2013-03-13 19:06:00,
2013-03-13 15:11:00,30.0,20.7,29.72,WNW,298,2.0,7.0,68,0.00,,,0.00,WeatherCatV1.02B3,2013-03-13 19:11:00,
2013-03-13 15:16:00,29.8,20.2,29.73,WSW,257,7.0,10.0,67,0.00,,,0.00,WeatherCatV1.02B3,2013-03-13 19:16:00,
2013-03-13 15:21:00,29.9,19.9,29.73,West,277,4.0,10.0,66,0.00,,,0.00,WeatherCatV1.02B3,2013-03-13 19:21:00,
2013-03-13 15:26:00,30.2,20.2,29.73,WNW,284,6.0,10.0,66,0.00,,,0.00,WeatherCatV1.02B3,2013-03-13 19:26:00,
2013-03-13 15:31:00,29.7,20.8,29.73,West,280,3.0,4.0,69,0.00,,,0.00,WeatherCatV1.02B3,2013-03-13 19:31:00,
2013-03-13 15:36:00,29.6,20.0,29.73,North,354,8.0,12.0,67,0.00,,,0.00,WeatherCatV1.02B3,2013-03-13 19:36:00,
2013-03-13 15:41:00,30.2,22.6,29.73,NNW,347,3.0,6.0,73,0.00,,,0.00,WeatherCatV1.02B3,2013-03-13 19:41:00,
2013-03-13 15:46:00,30.8,20.8,29.73,NW,315,0.0,12.0,66,0.00,,,0.00,WeatherCatV1.02B3,2013-03-13 19:46:00,
2013-03-13 15:51:00,31.1,21.1,29.74,North,1,4.0,8.0,66,0.00,,,0.00,WeatherCatV1.02B3,2013-03-13 19:51:00,
2013-03-13 15:56:00,31.0,19.1,29.74,WNW,294,1.0,9.0,61,0.00,,,0.00,WeatherCatV1.02B3,2013-03-13 19:56:00,
2013-03-13 16:01:00,31.0,21.0,29.74,West,276,6.0,7.0,66,0.00,,,0.00,WeatherCatV1.02B3,2013-03-13 20:01:00,
2013-03-13 16:06:00,30.9,19.8,29.74,WNW,297,5.0,12.0,63,0.00,,,0.00,WeatherCatV1.02B3,2013-03-13 20:06:00,
2013-03-13 16:11:00,30.9,20.2,29.74,NW,304,4.0,12.0,64,0.00,,,0.00,WeatherCatV1.02B3,2013-03-13 20:11:00,
2013-03-13 16:16:00,30.6,19.9,29.74,WNW,296,2.0,14.0,64,0.00,,,0.00,WeatherCatV1.02B3,2013-03-13 20:16:00,
2013-03-13 16:21:00,30.7,21.1,29.74,North,354,4.0,7.0,67,0.00,,,0.00,WeatherCatV1.02B3,2013-03-13 20:21:00,
2013-03-13 16:26:00,31.1,21.1,29.74,West,281,6.0,9.0,66,0.00,,,0.00,WeatherCatV1.02B3,2013-03-13 20:26:00,
2013-03-13 16:31:00,30.9,20.2,29.75,WNW,282,4.0,6.0,64,0.00,,,0.00,WeatherCatV1.02B3,2013-03-13 20:31:00,
2013-03-13 16:36:00,31.1,20.4,29.75,West,280,1.0,6.0,64,0.00,,,0.00,WeatherCatV1.02B3,2013-03-13 20:36:00,
2013-03-13 16:41:00,31.0,19.1,29.75,WNW,294,3.0,9.0,61,0.00,,,0.00,WeatherCatV1.02B3,2013-03-13 20:41:00,
2013-03-13 16:46:00,31.0,19.5,29.75,WNW,294,2.0,12.0,62,0.00,,,0.00,WeatherCatV1.02B3,2013-03-13 20:46:00,
2013-03-13 16:51:00,31.3,19.8,29.75,NW,304,3.0,7.0,62,0.00,,,0.00,WeatherCatV1.02B3,2013-03-13 20:51:00,
2013-03-13 16:56:00,32.1,21.3,29.75,NW,311,6.0,10.0,64,0.00,,,0.00,WeatherCatV1.02B3,2013-03-13 20:56:00,
2013-03-13 17:01:00,31.7,20.2,29.75,NW,311,4.0,10.0,62,0.00,,,0.00,WeatherCatV1.02B3,2013-03-13 21:01:00,
2013-03-13 17:06:00,31.0,19.5,29.76,WNW,293,6.0,8.0,62,0.00,,,0.00,WeatherCatV1.02B3,2013-03-13 21:06:00,
2013-03-13 17:11:00,31.2,19.3,29.76,WNW,291,4.0,10.0,61,0.00,,,0.00,WeatherCatV1.02B3,2013-03-13 21:11:00,
2013-03-13 17:16:00,31.6,18.9,29.76,NNW,332,2.0,7.0,59,0.00,,,0.00,WeatherCatV1.02B3,2013-03-13 21:16:00,
2013-03-13 17:21:00,31.6,18.1,29.76,WNW,292,4.0,7.0,57,0.00,,,0.00,WeatherCatV1.02B3,2013-03-13 21:21:00,
2013-03-13 17:27:00,31.9,19.2,29.76,West,277,6.0,8.0,59,0.00,,,0.00,WeatherCatV1.02B3,2013-03-13 21:27:00,
2013-03-13 17:32:00,32.0,18.9,29.76,WNW,287,4.0,7.0,58,0.00,,,0.00,WeatherCatV1.02B3,2013-03-13 21:32:00,
2013-03-13 17:37:00,31.7,18.6,29.76,West,278,5.0,8.0,58,0.00,,,0.00,WeatherCatV1.02B3,2013-03-13 21:37:00,
2013-03-13 17:42:00,31.4,18.0,29.77,ENE,60,2.0,8.0,57,0.00,,,0.00,WeatherCatV1.02B3,2013-03-13 21:42:00,
2013-03-13 17:47:00,31.9,19.2,29.76,NW,311,3.0,8.0,59,0.00,,,0.00,WeatherCatV1.02B3,2013-03-13 21:47:00,
2013-03-13 17:52:00,32.1,18.2,29.77,West,278,9.0,11.0,56,0.00,,,0.00,WeatherCatV1.02B3,2013-03-13 21:52:00,
2013-03-13 17:57:00,31.7,18.2,29.77,WNW,289,3.0,10.0,57,0.00,,,0.00,WeatherCatV1.02B3,2013-03-13 21:57:00,
2013-03-13 18:02:00,31.8,18.7,29.77,NW,304,7.0,12.0,58,0.00,,,0.00,WeatherCatV1.02B3,2013-03-13 22:02:00,
2013-03-13 18:07:00,31.8,18.3,29.77,WNW,283,3.0,7.0,57,0.00,,,0.00,WeatherCatV1.02B3,2013-03-13 22:07:00,
2013-03-13 18:12:00,31.9,18.8,29.77,West,281,6.0,7.0,58,0.00,,,0.00,WeatherCatV1.02B3,2013-03-13 22:12:00,
2013-03-13 18:17:00,31.7,18.2,29.77,WNW,290,2.0,9.0,57,0.00,,,0.00,WeatherCatV1.02B3,2013-03-13 22:17:00,
2013-03-13 18:22:00,31.8,17.9,29.77,WSW,256,3.0,4.0,56,0.00,,,0.00,WeatherCatV1.02B3,2013-03-13 22:22:00,
2013-03-13 18:27:00,31.7,17.0,29.77,NW,316,5.0,7.0,54,0.00,,,0.00,WeatherCatV1.02B3,2013-03-13 22:27:00,
2013-03-13 18:32:00,31.6,17.7,29.77,WNW,284,4.0,7.0,56,0.00,,,0.00,WeatherCatV1.02B3,2013-03-13 22:32:00,
2013-03-13 18:37:00,31.4,17.1,29.77,WNW,283,1.0,7.0,55,0.00,,,0.00,WeatherCatV1.02B3,2013-03-13 22:37:00,
2013-03-13 18:42:00,31.4,17.1,29.77,SW,233,5.0,8.0,55,0.00,,,0.00,WeatherCatV1.02B3,2013-03-13 22:42:00,
2013-03-13 18:47:00,31.1,16.4,29.77,NNW,327,4.0,7.0,54,0.00,,,0.00,WeatherCatV1.02B3,2013-03-13 22:47:00,
2013-03-13 18:52:00,30.9,16.2,29.77,West,260,7.0,12.0,54,0.00,,,0.00,WeatherCatV1.02B3,2013-03-13 22:52:00,
2013-03-13 18:57:00,30.8,17.0,29.77,WSW,242,3.0,5.0,56,0.00,,,0.00,WeatherCatV1.02B3,2013-03-13 22:57:00,
2013-03-13 19:02:00,30.8,16.1,29.77,West,278,6.0,7.0,54,0.00,,,0.00,WeatherCatV1.02B3,2013-03-13 23:02:00,
2013-03-13 19:07:00,30.8,17.4,29.77,WNW,285,0.0,2.0,57,0.00,,,0.00,WeatherCatV1.02B3,2013-03-13 23:07:00,
2013-03-13 19:12:00,30.8,17.0,29.77,NW,318,1.0,3.0,56,0.00,,,0.00,WeatherCatV1.02B3,2013-03-13 23:12:00,
2013-03-13 19:17:00,30.6,16.8,29.77,West,259,5.0,6.0,56,0.00,,,0.00,WeatherCatV1.02B3,2013-03-13 23:17:00,
2013-03-13 19:22:00,30.4,16.6,29.77,WNW,293,3.0,4.0,56,0.00,,,0.00,WeatherCatV1.02B3,2013-03-13 23:22:00,
2013-03-13 19:27:00,30.2,16.8,29.77,WNW,302,2.0,6.0,57,0.00,,,0.00,WeatherCatV1.02B3,2013-03-13 23:27:00,
2013-03-13 19:32:00,30.2,16.0,29.77,WNW,287,2.0,8.0,55,0.00,,,0.00,WeatherCatV1.02B3,2013-03-13 23:32:00,
2013-03-13 19:37:00,30.0,16.6,29.77,WNW,294,2.0,8.0,57,0.00,,,0.00,WeatherCatV1.02B3,2013-03-13 23:37:00,
2013-03-13 19:42:00,29.8,16.4,29.77,WNW,284,2.0,6.0,57,0.00,,,0.00,WeatherCatV1.02B3,2013-03-13 23:42:00,
2013-03-13 19:47:00,29.7,16.4,29.78,SSW,212,3.0,8.0,57,0.00,,,0.00,WeatherCatV1.02B3,2013-03-13 23:47:00,
2013-03-13 19:52:00,29.5,17.0,29.78,WNW,282,3.0,5.0,59,0.00,,,0.00,WeatherCatV1.02B3,2013-03-13 23:52:00,
2013-03-13 19:57:00,29.4,16.1,29.78,West,280,3.0,5.0,57,0.00,,,0.00,WeatherCatV1.02B3,2013-03-13 23:57:00,
2013-03-13 20:02:00,29.3,17.2,29.78,WSW,246,6.0,6.0,60,0.00,,,0.00,WeatherCatV1.02B3,2013-03-14 00:02:00,
2013-03-13 20:07:00,29.2,16.3,29.78,West,280,2.0,4.0,58,0.00,,,0.00,WeatherCatV1.02B3,2013-03-14 00:07:00,
2013-03-13 20:12:00,29.1,15.8,29.78,WNW,289,3.0,6.0,57,0.00,,,0.00,WeatherCatV1.02B3,2013-03-14 00:12:00,
2013-03-13 20:17:00,29.0,15.7,29.78,West,281,4.0,5.0,57,0.00,,,0.00,WeatherCatV1.02B3,2013-03-14 00:17:00,
2013-03-13 20:22:00,29.0,15.3,29.78,WNW,290,1.0,4.0,56,0.00,,,0.00,WeatherCatV1.02B3,2013-03-14 00:22:00,
2013-03-13 20:27:00,29.0,15.7,29.78,West,276,3.0,4.0,57,0.00,,,0.00,WeatherCatV1.02B3,2013-03-14 00:27:00,
2013-03-13 20:32:00,29.0,15.7,29.78,NW,312,2.0,4.0,57,0.00,,,0.00,WeatherCatV1.02B3,2013-03-14 00:32:00,
2013-03-13 20:37:00,28.9,16.0,29.78,NNW,330,1.0,5.0,58,0.00,,,0.00,WeatherCatV1.02B3,2013-03-14 00:37:00,
2013-03-13 20:42:00,28.8,15.5,29.79,WNW,285,0.0,1.0,57,0.00,,,0.00,WeatherCatV1.02B3,2013-03-14 00:42:00,
2013-03-13 20:47:00,28.7,15.8,29.79,WNW,301,0.0,5.0,58,0.00,,,0.00,WeatherCatV1.02B3,2013-03-14 00:47:00,
2013-03-13 20:52:00,28.6,15.7,29.79,NNW,338,6.0,6.0,58,0.00,,,0.00,WeatherCatV1.02B3,2013-03-14 00:52:00,
2013-03-13 20:57:00,28.6,15.3,29.79,NW,307,1.0,4.0,57,0.00,,,0.00,WeatherCatV1.02B3,2013-03-14 00:57:00,
2013-03-13 21:02:00,28.8,15.1,29.79,West,277,4.0,4.0,56,0.00,,,0.00,WeatherCatV1.02B3,2013-03-14 01:02:00,
2013-03-13 21:07:00,29.0,15.3,29.79,West,280,2.0,4.0,56,0.00,,,0.00,WeatherCatV1.02B3,2013-03-14 01:07:00,
2013-03-13 21:12:00,29.1,15.4,29.79,West,276,1.0,8.0,56,0.00,,,0.00,WeatherCatV1.02B3,2013-03-14 01:12:00,
2013-03-13 21:17:00,29.1,15.0,29.78,NW,318,2.0,6.0,55,0.00,,,0.00,WeatherCatV1.02B3,2013-03-14 01:17:00,
2013-03-13 21:22:00,29.2,15.1,29.78,SW,228,3.0,6.0,55,0.00,,,0.00,WeatherCatV1.02B3,2013-03-14 01:22:00,
2013-03-13 21:27:00,29.2,15.5,29.78,WNW,296,0.0,3.0,56,0.00,,,0.00,WeatherCatV1.02B3,2013-03-14 01:27:00,
2013-03-13 21:32:00,29.0,15.7,29.78,West,262,2.0,3.0,57,0.00,,,0.00,WeatherCatV1.02B3,2013-03-14 01:32:00,
2013-03-13 21:37:00,29.0,15.3,29.79,WNW,285,2.0,6.0,56,0.00,,,0.00,WeatherCatV1.02B3,2013-03-14 01:37:00,
2013-03-13 21:42:00,29.0,15.7,29.78,West,276,1.0,3.0,57,0.00,,,0.00,WeatherCatV1.02B3,2013-03-14 01:42:00,
2013-03-13 21:47:00,29.0,16.1,29.79,WNW,299,5.0,6.0,58,0.00,,,0.00,WeatherCatV1.02B3,2013-03-14 01:47:00,
2013-03-13 21:52:00,29.1,16.6,29.79,West,281,3.0,5.0,59,0.00,,,0.00,WeatherCatV1.02B3,2013-03-14 01:52:00,
2013-03-13 21:57:00,29.2,16.7,29.79,WNW,285,2.0,6.0,59,0.00,,,0.00,WeatherCatV1.02B3,2013-03-14 01:57:00,
2013-03-13 22:02:00,29.2,16.7,29.79,WSW,248,1.0,4.0,59,0.00,,,0.00,WeatherCatV1.02B3,2013-03-14 02:02:00,
2013-03-13 22:07:00,29.2,17.4,29.79,West,271,2.0,3.0,61,0.00,,,0.00,WeatherCatV1.02B3,2013-03-14 02:07:00,
2013-03-13 22:12:00,29.1,17.0,29.79,WNW,288,2.0,2.0,60,0.00,,,0.00,WeatherCatV1.02B3,2013-03-14 02:12:00,
2013-03-13 22:17:00,29.2,16.3,29.79,WNW,283,2.0,3.0,58,0.00,,,0.00,WeatherCatV1.02B3,2013-03-14 02:17:00,
2013-03-13 22:22:00,29.3,16.0,29.79,West,273,5.0,7.0,57,0.00,,,0.00,WeatherCatV1.02B3,2013-03-14 02:22:00,
2013-03-13 22:27:00,29.3,16.0,29.80,West,274,5.0,6.0,57,0.00,,,0.00,WeatherCatV1.02B3,2013-03-14 02:27:00,
2013-03-13 22:32:00,29.3,16.0,29.80,West,267,4.0,10.0,57,0.00,,,0.00,WeatherCatV1.02B3,2013-03-14 02:32:00,
2013-03-13 22:37:00,29.2,16.3,29.80,West,281,2.0,4.0,58,0.00,,,0.00,WeatherCatV1.02B3,2013-03-14 02:37:00,
2013-03-13 22:42:00,29.2,15.9,29.80,West,280,1.0,7.0,57,0.00,,,0.00,WeatherCatV1.02B3,2013-03-14 02:42:00,
2013-03-13 22:47:00,29.3,16.0,29.80,West,266,1.0,6.0,57,0.00,,,0.00,WeatherCatV1.02B3,2013-03-14 02:47:00,
2013-03-13 22:52:00,29.2,16.3,29.80,West,269,5.0,6.0,58,0.00,,,0.00,WeatherCatV1.02B3,2013-03-14 02:52:00,
2013-03-13 22:57:00,29.2,17.1,29.80,West,273,4.0,5.0,60,0.00,,,0.00,WeatherCatV1.02B3,2013-03-14 02:57:00,
2013-03-13 23:02:00,29.2,16.7,29.80,WNW,291,3.0,6.0,59,0.00,,,0.00,WeatherCatV1.02B3,2013-03-14 03:02:00,
2013-03-13 23:07:00,29.1,16.6,29.80,West,278,1.0,3.0,59,0.00,,,0.00,WeatherCatV1.02B3,2013-03-14 03:07:00,
2013-03-13 23:12:00,28.9,16.4,29.80,West,280,2.0,6.0,59,0.00,,,0.00,WeatherCatV1.02B3,2013-03-14 03:12:00,
2013-03-13 23:17:00,29.1,16.2,29.80,West,281,2.0,5.0,58,0.00,,,0.00,WeatherCatV1.02B3,2013-03-14 03:17:00,
2013-03-13 23:22:00,29.2,15.9,29.80,WNW,294,3.0,5.0,57,0.00,,,0.00,WeatherCatV1.02B3,2013-03-14 03:22:00,
2013-03-13 23:27:00,29.0,16.1,29.80,WNW,295,1.0,3.0,58,0.00,,,0.00,WeatherCatV1.02B3,2013-03-14 03:27:00,
2013-03-13 23:32:00,28.9,16.0,29.80,WNW,295,4.0,4.0,58,0.00,,,0.00,WeatherCatV1.02B3,2013-03-14 03:32:00,
2013-03-13 23:37:00,28.9,15.6,29.80,WNW,282,4.0,7.0,57,0.00,,,0.00,WeatherCatV1.02B3,2013-03-14 03:37:00,
2013-03-13 23:42:00,29.0,16.1,29.80,West,271,4.0,4.0,58,0.00,,,0.00,WeatherCatV1.02B3,2013-03-14 03:42:00,
2013-03-13 23:47:00,29.2,15.9,29.80,WNW,296,2.0,7.0,57,0.00,,,0.00,WeatherCatV1.02B3,2013-03-14 03:47:00,
2013-03-13 23:52:00,29.1,16.2,29.80,WNW,287,2.0,3.0,58,0.00,,,0.00,WeatherCatV1.02B3,2013-03-14 03:52:00,
2013-03-13 23:57:00,29.1,16.2,29.80,WNW,290,2.0,2.0,58,0.00,,,0.00,WeatherCatV1.02B3,2013-03-14 03:57:00,